createdAt,value
2023-05-17T00:00:41.464Z,7.40
2023-05-17T00:03:07.976Z,7.37
2023-05-17T00:05:34.464Z,7.36
2023-05-17T00:08:00.991Z,7.31
2023-05-17T00:10:27.490Z,7.29
2023-05-17T00:12:53.974Z,7.21
2023-05-17T00:15:20.632Z,7.17
2023-05-17T00:17:47.274Z,7.16
2023-05-17T00:20:13.859Z,7.17
2023-05-17T00:22:40.921Z,7.25
2023-05-17T00:25:07.924Z,7.37
2023-05-17T00:27:34.433Z,7.51
2023-05-17T00:30:00.881Z,7.67
2023-05-17T00:32:27.375Z,7.77
2023-05-17T00:34:53.957Z,7.82
2023-05-17T00:37:22.848Z,7.77
2023-05-17T00:39:49.544Z,7.70
2023-05-17T00:42:16.067Z,7.64
2023-05-17T00:44:42.778Z,7.57
2023-05-17T00:47:09.323Z,7.49
2023-05-17T00:49:35.869Z,7.44
2023-05-17T00:52:02.437Z,7.39
2023-05-17T00:54:29.158Z,7.37
2023-05-17T00:56:57.752Z,7.35
2023-05-17T00:59:25.974Z,7.30
2023-05-17T01:01:52.812Z,7.27
2023-05-17T01:04:19.378Z,7.24
2023-05-17T01:06:46.015Z,7.28
2023-05-17T01:09:12.852Z,7.32
2023-05-17T01:11:50.731Z,7.37
2023-05-17T01:14:20.363Z,7.40
2023-05-17T01:17:13.481Z,7.43
2023-05-17T01:19:49.207Z,7.45
2023-05-17T01:22:45.162Z,7.51
2023-05-17T01:25:24.416Z,7.62
2023-05-17T01:27:54.509Z,7.75
2023-05-17T01:30:24.949Z,7.81
2023-05-17T01:32:55.845Z,7.90
2023-05-17T01:35:22.430Z,7.98
2023-05-17T01:37:49.188Z,8.06
2023-05-17T01:40:17.645Z,8.11
2023-05-17T01:42:45.201Z,8.15
2023-05-17T01:45:32.289Z,8.20
2023-05-17T01:48:31.587Z,8.22
2023-05-17T01:50:59.617Z,8.27
2023-05-17T01:53:33.109Z,8.27
2023-05-17T01:56:07.722Z,8.28
2023-05-17T01:58:44.206Z,8.30
2023-05-17T02:01:11.982Z,8.33
2023-05-17T02:03:38.659Z,8.36
2023-05-17T02:06:05.287Z,8.37
2023-05-17T02:08:32.215Z,8.42
2023-05-17T02:10:58.871Z,8.47
2023-05-17T02:13:25.497Z,8.51
2023-05-17T02:15:52.033Z,8.53
2023-05-17T02:18:21.926Z,8.58
2023-05-17T02:20:48.521Z,8.64
2023-05-17T02:23:15.025Z,8.68
2023-05-17T02:25:41.549Z,8.70
2023-05-17T02:28:08.152Z,8.74
2023-05-17T02:30:35.181Z,8.77
2023-05-17T02:33:01.772Z,8.79
2023-05-17T02:35:29.352Z,8.77
2023-05-17T02:37:56.020Z,8.78
2023-05-17T02:40:22.517Z,8.82
2023-05-17T02:42:49.380Z,8.85
2023-05-17T02:45:17.497Z,8.85
2023-05-17T02:47:45.697Z,8.90
2023-05-17T02:50:12.374Z,8.93
2023-05-17T02:52:39.304Z,8.95
2023-05-17T02:55:06.814Z,8.98
2023-05-17T02:57:33.327Z,8.98
2023-05-17T02:59:59.999Z,9.01
2023-05-17T03:02:27.571Z,9.02
2023-05-17T03:04:54.278Z,9.02
2023-05-17T03:07:20.867Z,9.04
2023-05-17T03:09:47.526Z,9.03
2023-05-17T03:12:14.090Z,9.02
2023-05-17T03:14:40.658Z,9.00
2023-05-17T03:17:09.903Z,8.92
2023-05-17T03:19:36.690Z,8.84
2023-05-17T03:22:03.562Z,8.78
2023-05-17T03:24:32.360Z,8.71
2023-05-17T03:26:59.840Z,8.62
2023-05-17T03:29:26.555Z,8.53
2023-05-17T03:31:53.287Z,8.44
2023-05-17T03:34:19.821Z,8.34
2023-05-17T03:36:46.303Z,8.24
2023-05-17T03:39:12.986Z,8.21
2023-05-17T03:41:42.087Z,8.20
2023-05-17T03:44:08.851Z,8.12
2023-05-17T03:46:36.206Z,8.04
2023-05-17T03:49:03.943Z,7.89
2023-05-17T03:51:32.543Z,7.82
2023-05-17T03:54:01.160Z,7.78
2023-05-17T03:56:29.158Z,7.72
2023-05-17T03:58:55.661Z,7.67
2023-05-17T04:01:22.836Z,7.63
2023-05-17T04:03:49.403Z,7.61
2023-05-17T04:06:16.037Z,7.57
2023-05-17T04:08:42.863Z,7.57
2023-05-17T04:11:13.947Z,7.62
2023-05-17T04:13:42.397Z,7.66
2023-05-17T04:16:09.457Z,7.65
2023-05-17T04:18:38.806Z,7.63
2023-05-17T04:21:06.132Z,7.62
2023-05-17T04:23:34.904Z,7.65
2023-05-17T04:26:03.177Z,7.63
2023-05-17T04:28:31.699Z,7.63
2023-05-17T04:30:58.276Z,7.65
2023-05-17T04:33:24.869Z,7.67
2023-05-17T04:35:55.015Z,7.68
2023-05-17T04:38:23.605Z,7.73
2023-05-17T04:40:51.175Z,7.79
2023-05-17T04:43:18.042Z,7.82
2023-05-17T04:45:44.820Z,7.86
2023-05-17T04:48:11.771Z,7.90
2023-05-17T04:50:38.346Z,7.95
2023-05-17T04:53:04.829Z,7.99
2023-05-17T04:55:34.394Z,8.06
2023-05-17T04:58:01.001Z,8.14
2023-05-17T05:00:27.943Z,8.20
2023-05-17T05:03:04.816Z,8.28
2023-05-17T05:05:31.712Z,8.40
2023-05-17T05:07:58.496Z,8.45
2023-05-17T05:10:25.000Z,8.50
2023-05-17T05:12:51.797Z,8.55
2023-05-17T05:15:19.115Z,8.63
2023-05-17T05:17:52.486Z,8.71
2023-05-17T05:20:20.261Z,8.80
2023-05-17T05:22:46.875Z,8.94
2023-05-17T05:25:15.141Z,9.03
2023-05-17T05:27:41.660Z,9.10
2023-05-17T05:30:09.038Z,9.19
2023-05-17T05:32:37.937Z,9.28
2023-05-17T05:35:06.698Z,9.40
2023-05-17T05:37:33.738Z,9.52
2023-05-17T05:40:00.375Z,9.59
2023-05-17T05:42:29.050Z,9.72
2023-05-17T05:44:56.081Z,9.90
2023-05-17T05:47:23.665Z,10.16
2023-05-17T05:49:50.547Z,13.31
2023-05-17T05:52:17.416Z,16.20
2023-05-17T05:54:44.840Z,17.89
2023-05-17T05:57:11.440Z,19.02
2023-05-17T05:59:38.984Z,19.73
2023-05-17T06:02:05.708Z,19.30
2023-05-17T06:04:44.498Z,20.04
2023-05-17T06:07:25.601Z,21.49
2023-05-17T06:09:52.202Z,21.85
2023-05-17T06:12:18.879Z,22.15
2023-05-17T06:14:45.380Z,21.56
2023-05-17T06:17:11.854Z,23.02
2023-05-17T06:20:16.524Z,24.16
2023-05-17T06:22:45.486Z,24.87
2023-05-17T06:25:12.094Z,24.40
2023-05-17T06:27:38.829Z,25.04
2023-05-17T06:30:07.403Z,25.68
2023-05-17T06:32:35.879Z,25.74
2023-05-17T06:35:02.778Z,25.08
2023-05-17T06:37:29.396Z,25.13
2023-05-17T06:40:14.902Z,25.51
2023-05-17T06:43:07.683Z,25.47
2023-05-17T06:45:37.296Z,25.22
2023-05-17T06:48:03.925Z,21.76
2023-05-17T06:50:32.079Z,21.25
2023-05-17T06:52:58.763Z,21.43
2023-05-17T06:57:51.668Z,23.45
2023-05-17T07:00:18.694Z,20.99
2023-05-17T07:02:45.385Z,20.08
2023-05-17T07:05:11.944Z,21.83
2023-05-17T07:07:38.505Z,20.36
2023-05-17T07:10:06.086Z,18.99
2023-05-17T07:12:33.947Z,19.67
2023-05-17T07:15:00.586Z,22.07
2023-05-17T07:17:27.254Z,25.07
2023-05-17T07:19:54.122Z,25.72
2023-05-17T07:22:20.756Z,26.53
2023-05-17T07:24:48.163Z,26.68
2023-05-17T07:27:17.360Z,26.06
2023-05-17T07:29:43.964Z,26.43
2023-05-17T07:32:10.566Z,23.66
2023-05-17T07:34:37.212Z,20.81
2023-05-17T07:37:05.260Z,18.60
2023-05-17T07:39:31.861Z,20.27
2023-05-17T07:41:58.408Z,23.38
2023-05-17T07:44:24.986Z,25.33
2023-05-17T07:46:52.569Z,25.70
2023-05-17T07:49:21.509Z,25.90
2023-05-17T07:51:48.066Z,26.17
2023-05-17T07:54:32.770Z,25.66
2023-05-17T07:56:59.745Z,24.80
2023-05-17T07:59:35.972Z,25.68
2023-05-17T08:02:02.532Z,25.09
2023-05-17T08:04:29.140Z,22.14
2023-05-17T08:06:56.063Z,22.84
2023-05-17T08:09:22.664Z,24.41
2023-05-17T08:11:49.282Z,24.67
2023-05-17T08:14:16.581Z,25.10
2023-05-17T08:16:46.294Z,22.66
2023-05-17T08:19:14.745Z,21.91
2023-05-17T08:21:42.237Z,23.08
2023-05-17T08:24:09.289Z,23.64
2023-05-17T08:26:36.096Z,23.78
2023-05-17T08:29:06.199Z,23.32
2023-05-17T08:31:33.180Z,23.82
2023-05-17T08:33:59.819Z,22.10
2023-05-17T08:36:26.940Z,19.84
2023-05-17T08:38:53.427Z,18.85
2023-05-17T08:41:37.310Z,19.15
2023-05-17T08:44:05.208Z,20.25
2023-05-17T08:46:34.864Z,21.24
2023-05-17T08:49:04.116Z,21.67
2023-05-17T08:51:32.562Z,22.31
2023-05-17T08:53:59.466Z,22.63
2023-05-17T08:56:26.050Z,22.52
2023-05-17T08:58:57.869Z,22.59
2023-05-17T09:01:26.893Z,22.28
2023-05-17T09:03:54.941Z,22.64
2023-05-17T09:06:23.030Z,21.74
2023-05-17T09:08:53.241Z,20.80
2023-05-17T09:11:30.665Z,20.83
2023-05-17T09:14:01.782Z,21.61
2023-05-17T09:16:30.036Z,21.83
2023-05-17T09:18:58.324Z,22.50
2023-05-17T09:21:26.050Z,23.11
2023-05-17T09:24:05.265Z,23.60
2023-05-17T09:26:47.477Z,23.12
2023-05-17T09:29:24.545Z,22.99
2023-05-17T09:31:51.060Z,23.46
2023-05-17T09:34:20.763Z,23.69
2023-05-17T09:36:47.554Z,23.56
2023-05-17T09:39:15.655Z,22.95
2023-05-17T09:41:54.120Z,22.58
2023-05-17T09:44:23.529Z,22.88
2023-05-17T09:46:50.031Z,22.50
2023-05-17T09:49:17.612Z,22.18
2023-05-17T09:51:46.785Z,22.68
2023-05-17T09:54:13.931Z,23.00
2023-05-17T09:56:41.254Z,23.14
2023-05-17T09:59:15.990Z,23.40
2023-05-17T10:01:47.699Z,22.60
2023-05-17T10:04:20.288Z,22.34
2023-05-17T10:06:50.686Z,21.94
2023-05-17T10:09:21.556Z,21.75
2023-05-17T10:11:48.240Z,21.53
2023-05-17T10:14:19.101Z,21.27
2023-05-17T10:16:45.897Z,22.12
2023-05-17T10:19:15.268Z,22.65
2023-05-17T10:21:43.230Z,22.95
2023-05-17T10:24:13.903Z,23.01
2023-05-17T10:26:42.074Z,22.88
2023-05-17T10:29:09.941Z,22.51
2023-05-17T10:31:39.268Z,22.39
2023-05-17T10:34:18.917Z,21.66
2023-05-17T10:36:48.825Z,22.07
2023-05-17T10:39:16.740Z,22.69
2023-05-17T10:41:49.206Z,22.76
2023-05-17T10:44:17.476Z,22.72
2023-05-17T10:46:57.272Z,23.07
2023-05-17T10:49:30.283Z,22.91
2023-05-17T10:51:57.635Z,22.96
2023-05-17T10:54:39.226Z,21.87
2023-05-17T10:57:08.722Z,21.79
2023-05-17T10:59:35.943Z,21.94
2023-05-17T11:02:10.193Z,21.99
2023-05-17T11:04:38.732Z,21.19
2023-05-17T11:07:17.394Z,21.59
2023-05-17T11:09:51.962Z,21.71
2023-05-17T11:12:28.103Z,21.22
2023-05-17T11:14:55.365Z,21.22
2023-05-17T11:17:26.596Z,21.50
2023-05-17T11:19:59.458Z,22.06
2023-05-17T11:22:27.599Z,21.38
2023-05-17T11:24:56.748Z,21.13
2023-05-17T11:27:42.026Z,20.99
2023-05-17T11:30:28.976Z,20.44
2023-05-17T11:33:02.661Z,20.57
2023-05-17T11:35:33.110Z,20.60
2023-05-17T11:38:20.008Z,20.62
2023-05-17T11:40:48.820Z,20.50
2023-05-17T11:43:20.086Z,19.46
2023-05-17T11:45:54.000Z,19.54
2023-05-17T11:48:22.800Z,20.12
2023-05-17T11:50:51.192Z,20.33
2023-05-17T11:53:20.582Z,20.56
2023-05-17T11:56:16.757Z,20.28
2023-05-17T11:58:52.154Z,20.16
2023-05-17T12:01:46.233Z,20.18
2023-05-17T12:04:13.725Z,20.16
2023-05-17T12:06:40.837Z,20.17
2023-05-17T12:09:17.795Z,19.86
2023-05-17T12:11:44.710Z,19.92
2023-05-17T12:14:16.541Z,19.74
2023-05-17T12:16:44.759Z,19.75
2023-05-17T12:19:22.202Z,20.05
2023-05-17T12:21:49.721Z,20.12
2023-05-17T12:24:19.571Z,20.19
2023-05-17T12:26:48.067Z,20.14
2023-05-17T12:29:15.928Z,20.29
2023-05-17T12:31:51.945Z,19.62
2023-05-17T12:34:19.159Z,19.04
2023-05-17T12:36:46.489Z,18.60
2023-05-17T12:39:14.547Z,18.38
2023-05-17T12:41:43.073Z,18.76
2023-05-17T12:46:39.442Z,18.37
2023-05-17T12:49:08.375Z,18.01
2023-05-17T12:51:44.395Z,18.46
2023-05-17T12:54:18.103Z,18.73
2023-05-17T12:56:45.272Z,18.80
2023-05-17T12:59:12.208Z,18.89
2023-05-17T13:01:46.826Z,18.96
2023-05-17T13:04:14.698Z,18.51
2023-05-17T13:06:52.163Z,18.25
2023-05-17T13:09:21.019Z,18.36
2023-05-17T13:11:52.095Z,18.23
2023-05-17T13:14:35.528Z,18.28
2023-05-17T13:17:03.583Z,18.50
2023-05-17T13:19:30.316Z,18.74
2023-05-17T13:21:57.282Z,18.74
2023-05-17T13:24:26.886Z,18.73
2023-05-17T13:26:54.146Z,18.64
2023-05-17T13:29:31.605Z,18.70
2023-05-17T13:32:06.715Z,18.42
2023-05-17T13:34:33.285Z,18.31
2023-05-17T13:36:59.743Z,18.39
2023-05-17T13:39:26.460Z,18.09
2023-05-17T13:41:53.529Z,17.44
2023-05-17T13:44:20.086Z,17.38
2023-05-17T13:46:46.601Z,17.82
2023-05-17T13:49:16.332Z,18.09
2023-05-17T13:51:43.177Z,18.26
2023-05-17T13:54:11.538Z,18.22
2023-05-17T13:56:40.532Z,18.31
2023-05-17T13:59:07.459Z,18.25
2023-05-17T14:01:34.370Z,18.34
2023-05-17T14:04:01.154Z,18.38
2023-05-17T14:06:28.273Z,18.19
2023-05-17T14:08:57.132Z,18.06
2023-05-17T14:11:23.628Z,18.04
2023-05-17T14:13:50.215Z,17.86
2023-05-17T14:16:16.839Z,17.84
2023-05-17T14:18:43.488Z,17.86
2023-05-17T14:21:10.225Z,17.66
2023-05-17T14:23:36.899Z,17.69
2023-05-17T14:26:07.622Z,17.48
2023-05-17T14:28:37.968Z,17.50
2023-05-17T14:31:07.035Z,17.55
2023-05-17T14:33:33.850Z,17.22
2023-05-17T14:36:00.849Z,17.40
2023-05-17T14:38:27.347Z,17.62
2023-05-17T14:40:53.917Z,17.55
2023-05-17T14:43:20.898Z,17.52
2023-05-17T14:45:48.021Z,17.66
2023-05-17T14:48:14.664Z,17.85
2023-05-17T14:50:41.273Z,17.42
2023-05-17T14:53:07.824Z,17.39
2023-05-17T14:55:34.404Z,17.34
2023-05-17T14:58:01.905Z,17.27
2023-05-17T15:00:28.469Z,17.08
2023-05-17T15:02:54.989Z,17.08
2023-05-17T15:05:21.559Z,17.16
2023-05-17T15:07:48.309Z,17.25
2023-05-17T15:10:15.966Z,17.03
2023-05-17T15:12:42.434Z,16.99
2023-05-17T15:15:09.326Z,17.01
2023-05-17T15:17:35.940Z,16.83
2023-05-17T15:20:02.495Z,16.78
2023-05-17T15:22:29.385Z,16.88
2023-05-17T15:24:57.748Z,17.08
2023-05-17T15:27:24.314Z,16.87
2023-05-17T15:29:50.895Z,16.67
2023-05-17T15:32:17.341Z,16.77
2023-05-17T15:34:45.071Z,16.87
2023-05-17T15:37:12.041Z,16.87
2023-05-17T15:39:38.509Z,17.05
2023-05-17T15:42:05.438Z,16.99
2023-05-17T15:44:31.926Z,16.81
2023-05-17T15:46:59.872Z,16.67
2023-05-17T15:49:28.187Z,16.74
2023-05-17T15:51:54.896Z,16.76
2023-05-17T15:54:21.417Z,16.78
2023-05-17T15:56:47.920Z,16.79
2023-05-17T15:59:15.539Z,16.85
2023-05-17T16:01:42.301Z,16.87
2023-05-17T16:04:08.888Z,16.57
2023-05-17T16:06:36.708Z,16.51
2023-05-17T16:09:03.491Z,16.40
2023-05-17T16:11:30.123Z,16.26
2023-05-17T16:13:57.140Z,16.38
2023-05-17T16:16:23.897Z,16.33
2023-05-17T16:18:50.905Z,16.37
2023-05-17T16:21:17.436Z,16.52
2023-05-17T16:23:43.951Z,16.47
2023-05-17T16:26:10.742Z,16.33
2023-05-17T16:28:37.310Z,16.34
2023-05-17T16:31:04.614Z,16.33
2023-05-17T16:33:31.380Z,16.35
2023-05-17T16:35:58.999Z,16.33
2023-05-17T16:38:26.169Z,16.26
2023-05-17T16:40:52.779Z,16.03
2023-05-17T16:43:19.376Z,15.92
2023-05-17T16:45:46.500Z,15.91
2023-05-17T16:48:16.732Z,15.80
2023-05-17T16:50:43.281Z,15.87
2023-05-17T16:53:09.853Z,15.77
2023-05-17T16:55:36.665Z,15.76
2023-05-17T16:58:03.619Z,15.75
2023-05-17T17:00:30.678Z,15.76
2023-05-17T17:02:58.370Z,15.85
2023-05-17T17:05:25.230Z,15.91
2023-05-17T17:07:51.783Z,15.96
2023-05-17T17:10:19.981Z,15.74
2023-05-17T17:12:48.046Z,15.71
2023-05-17T17:15:15.512Z,15.72
2023-05-17T17:17:42.588Z,15.60
2023-05-17T17:20:09.697Z,15.57
2023-05-17T17:22:36.228Z,15.41
2023-05-17T17:25:02.959Z,15.21
2023-05-17T17:27:29.390Z,14.73
2023-05-17T17:29:55.924Z,14.49
2023-05-17T17:32:22.508Z,14.53
2023-05-17T17:34:49.005Z,14.56
2023-05-17T17:37:15.580Z,14.44
2023-05-17T17:39:42.087Z,14.37
2023-05-17T17:42:10.547Z,14.12
2023-05-17T17:44:37.126Z,14.06
2023-05-17T17:47:03.773Z,14.29
2023-05-17T17:49:30.395Z,14.56
2023-05-17T17:51:58.147Z,14.37
2023-05-17T17:54:25.056Z,13.90
2023-05-17T17:56:52.262Z,13.64
2023-05-17T17:59:18.816Z,13.56
2023-05-17T18:01:45.383Z,13.40
2023-05-17T18:04:13.557Z,13.19
2023-05-17T18:06:42.004Z,13.09
2023-05-17T18:09:08.697Z,12.99
2023-05-17T18:11:35.317Z,12.89
2023-05-17T18:14:02.561Z,12.75
2023-05-17T18:16:30.637Z,12.66
2023-05-17T18:18:57.312Z,12.58
2023-05-17T18:21:24.434Z,12.55
2023-05-17T18:23:51.132Z,12.51
2023-05-17T18:26:17.603Z,12.45
2023-05-17T18:28:44.059Z,12.36
2023-05-17T18:31:10.683Z,12.27
2023-05-17T18:33:37.184Z,12.22
2023-05-17T18:36:03.926Z,12.15
2023-05-17T18:38:30.520Z,12.09
2023-05-17T18:40:57.096Z,12.07
2023-05-17T18:43:23.582Z,12.04
2023-05-17T18:45:51.376Z,11.91
2023-05-17T18:48:18.077Z,11.86
2023-05-17T18:50:44.818Z,11.87
2023-05-17T18:53:12.850Z,11.81
2023-05-17T18:55:39.541Z,11.75
2023-05-17T18:58:06.101Z,11.70
2023-05-17T19:00:33.110Z,11.59
2023-05-17T19:02:59.874Z,11.53
2023-05-17T19:05:26.489Z,11.50
2023-05-17T19:07:52.978Z,11.55
2023-05-17T19:10:22.706Z,11.47
2023-05-17T19:12:49.205Z,11.39
2023-05-17T19:15:16.202Z,11.31
2023-05-17T19:17:44.027Z,11.27
2023-05-17T19:20:11.028Z,11.22
2023-05-17T19:22:39.161Z,11.14
2023-05-17T19:25:06.545Z,11.09
2023-05-17T19:27:34.244Z,10.98
2023-05-17T19:30:00.713Z,10.94
2023-05-17T19:32:27.373Z,10.88
2023-05-17T19:34:54.877Z,10.83
2023-05-17T19:37:21.549Z,10.78
2023-05-17T19:39:48.003Z,10.78
2023-05-17T19:42:14.490Z,10.72
2023-05-17T19:44:40.967Z,10.69
2023-05-17T19:47:07.448Z,10.62
2023-05-17T19:49:34.022Z,10.54
2023-05-17T19:52:01.194Z,10.54
2023-05-17T19:54:29.406Z,10.44
2023-05-17T19:56:57.081Z,10.46
2023-05-17T19:59:23.649Z,10.45
2023-05-17T20:01:50.774Z,10.41
2023-05-17T20:04:17.463Z,10.35
2023-05-17T20:06:44.172Z,10.31
2023-05-17T20:09:11.078Z,10.30
2023-05-17T20:11:37.649Z,10.23
2023-05-17T20:14:04.238Z,10.16
2023-05-17T20:16:30.944Z,10.10
2023-05-17T20:19:00.955Z,10.03
2023-05-17T20:21:27.720Z,9.99
2023-05-17T20:24:01.042Z,9.96
2023-05-17T20:26:31.558Z,9.85
2023-05-17T20:28:59.016Z,9.79
2023-05-17T20:31:25.621Z,9.79
2023-05-17T20:33:52.859Z,9.78
2023-05-17T20:36:19.378Z,9.71
2023-05-17T20:38:45.875Z,9.67
2023-05-17T20:41:14.667Z,9.66
2023-05-17T20:43:45.224Z,9.61
2023-05-17T20:46:13.204Z,9.62
2023-05-17T20:48:42.781Z,9.59
2023-05-17T20:51:10.208Z,9.57
2023-05-17T20:53:36.900Z,9.50
2023-05-17T20:56:03.518Z,9.46
2023-05-17T20:58:30.409Z,9.44
2023-05-17T21:00:57.914Z,9.39
2023-05-17T21:03:27.952Z,9.29
2023-05-17T21:05:55.621Z,9.28
2023-05-17T21:08:22.445Z,9.27
2023-05-17T21:10:49.417Z,9.21
2023-05-17T21:13:15.954Z,9.12
2023-05-17T21:15:42.871Z,9.07
2023-05-17T21:18:10.805Z,9.02
2023-05-17T21:20:37.893Z,8.98
2023-05-17T21:23:04.418Z,9.00
2023-05-17T21:25:31.167Z,8.98
2023-05-17T21:27:57.773Z,8.95
2023-05-17T21:30:24.252Z,8.98
2023-05-17T21:32:51.302Z,8.93
2023-05-17T21:35:17.911Z,8.88
2023-05-17T21:37:45.538Z,8.83
2023-05-17T21:40:12.311Z,8.80
2023-05-17T21:42:38.815Z,8.73
2023-05-17T21:45:06.173Z,8.71
2023-05-17T21:47:32.857Z,8.64
2023-05-17T21:49:59.353Z,8.58
2023-05-17T21:52:26.212Z,8.55
2023-05-17T21:54:52.715Z,8.49
2023-05-17T21:57:20.965Z,8.50
2023-05-17T21:59:48.930Z,8.48
2023-05-17T22:02:15.734Z,8.47
2023-05-17T22:04:42.333Z,8.44
2023-05-17T22:07:09.800Z,8.43
2023-05-17T22:09:36.805Z,8.37
2023-05-17T22:12:04.965Z,8.37
2023-05-17T22:14:34.276Z,8.31
2023-05-17T22:17:00.969Z,8.28
2023-05-17T22:19:30.274Z,8.21
2023-05-17T22:21:57.002Z,8.16
2023-05-17T22:24:23.486Z,8.11
2023-05-17T22:26:49.927Z,8.06
2023-05-17T22:29:16.488Z,8.03
2023-05-17T22:31:42.995Z,8.00
2023-05-17T22:34:09.486Z,7.99
2023-05-17T22:36:35.990Z,7.95
2023-05-17T22:39:02.552Z,7.92
2023-05-17T22:41:29.082Z,7.91
2023-05-17T22:43:55.521Z,7.85
2023-05-17T22:46:22.704Z,7.80
2023-05-17T22:48:50.131Z,7.75
2023-05-17T22:51:18.502Z,7.70
2023-05-17T22:53:45.065Z,7.66
2023-05-17T22:56:11.562Z,7.62
2023-05-17T22:58:38.087Z,7.57
2023-05-17T23:01:04.753Z,7.56
2023-05-17T23:03:31.450Z,7.55
2023-05-17T23:06:05.149Z,7.50
2023-05-17T23:08:32.350Z,7.45
2023-05-17T23:10:58.874Z,7.41
2023-05-17T23:13:26.063Z,7.39
2023-05-17T23:15:52.770Z,7.35
2023-05-17T23:18:19.559Z,7.36
2023-05-17T23:20:46.385Z,7.30
2023-05-17T23:23:15.830Z,7.27
2023-05-17T23:25:42.503Z,7.27
2023-05-17T23:28:09.444Z,7.28
2023-05-17T23:30:38.422Z,7.29
2023-05-17T23:33:04.914Z,7.25
2023-05-17T23:35:31.926Z,7.18
2023-05-17T23:37:58.586Z,7.16
2023-05-17T23:40:25.084Z,7.13
2023-05-17T23:42:51.754Z,7.11
2023-05-17T23:45:18.281Z,7.07
2023-05-17T23:47:49.723Z,7.03
2023-05-17T23:50:16.371Z,6.97
2023-05-17T23:52:43.427Z,6.92
2023-05-17T23:55:10.020Z,6.89
2023-05-17T23:57:36.660Z,6.85
